createdAt,value
2022-11-02T00:00:22.725Z,9.92
2022-11-02T00:02:52.821Z,9.92
2022-11-02T00:05:25.066Z,9.89
2022-11-02T00:07:55.418Z,9.91
2022-11-02T00:10:26.767Z,9.91
2022-11-02T00:12:55.666Z,9.87
2022-11-02T00:15:26.795Z,9.85
2022-11-02T00:17:57.404Z,9.85
2022-11-02T00:20:26.288Z,9.89
2022-11-02T00:22:58.743Z,9.92
2022-11-02T00:25:28.779Z,9.94
2022-11-02T00:27:57.176Z,9.89
2022-11-02T00:30:28.393Z,9.91
2022-11-02T00:32:58.226Z,9.89
2022-11-02T00:35:27.654Z,9.85
2022-11-02T00:37:57.582Z,9.85
2022-11-02T00:40:25.595Z,9.82
2022-11-02T00:42:56.700Z,9.84
2022-11-02T00:45:24.756Z,9.85
2022-11-02T00:47:53.191Z,9.84
2022-11-02T00:50:23.150Z,9.85
2022-11-02T00:52:52.553Z,9.85
2022-11-02T00:55:21.408Z,9.82
2022-11-02T00:57:52.002Z,9.78
2022-11-02T01:00:22.473Z,9.79
2022-11-02T01:02:51.943Z,9.78
2022-11-02T01:05:25.697Z,9.78
2022-11-02T01:07:54.396Z,9.73
2022-11-02T01:10:27.207Z,9.67
2022-11-02T01:12:57.539Z,9.71
2022-11-02T01:15:26.107Z,9.68
2022-11-02T01:17:54.601Z,9.64
2022-11-02T01:20:24.555Z,9.61
2022-11-02T01:22:52.543Z,9.60
2022-11-02T01:25:22.967Z,9.52
2022-11-02T01:27:53.266Z,9.54
2022-11-02T01:30:21.597Z,9.57
2022-11-02T01:32:52.512Z,9.51
2022-11-02T01:35:20.592Z,9.48
2022-11-02T01:37:50.372Z,9.46
2022-11-02T01:40:18.508Z,9.41
2022-11-02T01:42:46.491Z,9.44
2022-11-02T01:45:15.941Z,9.39
2022-11-02T01:47:46.060Z,9.33
2022-11-02T01:50:18.599Z,9.30
2022-11-02T01:52:47.176Z,9.26
2022-11-02T01:55:20.318Z,9.23
2022-11-02T01:57:53.737Z,9.16
2022-11-02T02:00:23.336Z,9.12
2022-11-02T02:02:55.502Z,9.13
2022-11-02T02:05:25.065Z,9.12
2022-11-02T02:07:54.710Z,9.09
2022-11-02T02:10:27.867Z,9.09
2022-11-02T02:12:56.190Z,9.08
2022-11-02T02:15:26.697Z,9.08
2022-11-02T02:18:00.732Z,9.15
2022-11-02T02:20:44.208Z,9.19
2022-11-02T02:23:33.209Z,9.18
2022-11-02T02:26:36.912Z,9.20
2022-11-02T02:29:11.548Z,9.20
2022-11-02T02:31:46.616Z,9.19
2022-11-02T02:34:19.901Z,9.22
2022-11-02T02:36:56.064Z,9.24
2022-11-02T02:39:29.873Z,9.26
2022-11-02T02:42:00.208Z,9.29
2022-11-02T02:44:33.784Z,9.29
2022-11-02T02:47:04.703Z,9.31
2022-11-02T02:49:38.835Z,9.26
2022-11-02T02:52:09.342Z,9.22
2022-11-02T02:54:41.817Z,9.23
2022-11-02T02:57:15.394Z,9.19
2022-11-02T02:59:48.704Z,9.20
2022-11-02T03:02:22.646Z,9.15
2022-11-02T03:04:51.687Z,9.08
2022-11-02T03:07:23.978Z,9.06
2022-11-02T03:09:58.125Z,9.00
2022-11-02T03:12:33.219Z,9.00
2022-11-02T03:15:18.607Z,8.96
2022-11-02T03:17:52.011Z,8.92
2022-11-02T03:20:24.935Z,8.89
2022-11-02T03:22:59.766Z,8.89
2022-11-02T03:25:31.966Z,8.89
2022-11-02T03:28:07.809Z,8.92
2022-11-02T03:30:42.014Z,8.95
2022-11-02T03:33:17.914Z,8.88
2022-11-02T03:35:49.631Z,8.93
2022-11-02T03:38:22.042Z,8.93
2022-11-02T03:40:52.384Z,8.95
2022-11-02T03:43:21.897Z,8.99
2022-11-02T03:45:56.937Z,8.99
2022-11-02T03:48:30.593Z,8.96
2022-11-02T03:51:03.703Z,8.96
2022-11-02T03:53:39.313Z,8.96
2022-11-02T03:56:11.414Z,8.95
2022-11-02T03:58:39.967Z,8.95
2022-11-02T04:01:09.465Z,8.90
2022-11-02T04:03:43.448Z,8.90
2022-11-02T04:06:15.055Z,8.90
2022-11-02T04:08:47.746Z,8.92
2022-11-02T04:11:35.158Z,8.88
2022-11-02T04:14:22.265Z,8.83
2022-11-02T04:17:15.881Z,8.81
2022-11-02T04:19:49.882Z,8.75
2022-11-02T04:22:36.438Z,8.75
2022-11-02T04:25:25.877Z,8.75
2022-11-02T04:27:54.522Z,8.75
2022-11-02T04:30:23.986Z,8.73
2022-11-02T04:33:15.090Z,8.68
2022-11-02T04:35:46.209Z,8.67
2022-11-02T04:38:32.844Z,8.67
2022-11-02T04:41:18.649Z,8.68
2022-11-02T04:43:46.655Z,8.67
2022-11-02T04:46:14.797Z,8.61
2022-11-02T04:48:45.152Z,8.58
2022-11-02T04:51:13.160Z,8.55
2022-11-02T04:53:42.288Z,8.61
2022-11-02T04:56:10.955Z,8.60
2022-11-02T04:58:39.402Z,8.50
2022-11-02T05:01:08.759Z,8.47
2022-11-02T05:03:39.899Z,8.45
2022-11-02T05:06:10.839Z,8.47
2022-11-02T05:08:39.717Z,8.47
2022-11-02T05:11:10.222Z,8.44
2022-11-02T05:13:40.065Z,8.45
2022-11-02T05:16:13.440Z,8.42
2022-11-02T05:18:46.272Z,8.45
2022-11-02T05:21:17.525Z,8.42
2022-11-02T05:23:53.531Z,8.44
2022-11-02T05:26:25.267Z,8.42
2022-11-02T05:28:59.019Z,8.40
2022-11-02T05:31:30.859Z,8.37
2022-11-02T05:33:59.277Z,8.37
2022-11-02T05:36:33.633Z,8.37
2022-11-02T05:39:03.954Z,8.34
2022-11-02T05:41:33.523Z,8.37
2022-11-02T05:44:03.650Z,8.37
2022-11-02T05:46:31.706Z,8.38
2022-11-02T05:49:01.079Z,8.44
2022-11-02T05:51:31.123Z,8.42
2022-11-02T05:54:00.646Z,8.47
2022-11-02T05:56:30.225Z,8.51
2022-11-02T05:58:59.634Z,8.45
2022-11-02T06:01:30.511Z,8.38
2022-11-02T06:03:58.719Z,8.33
2022-11-02T06:06:28.499Z,8.27
2022-11-02T06:09:02.833Z,8.23
2022-11-02T06:11:36.241Z,8.20
2022-11-02T06:14:04.794Z,8.21
2022-11-02T06:16:33.356Z,8.26
2022-11-02T06:19:02.919Z,8.30
2022-11-02T06:21:31.191Z,8.29
2022-11-02T06:24:05.670Z,8.38
2022-11-02T06:26:34.822Z,8.45
2022-11-02T06:29:06.207Z,8.51
2022-11-02T06:31:36.413Z,8.60
2022-11-02T06:34:07.679Z,8.69
2022-11-02T06:36:38.515Z,8.76
2022-11-02T06:39:07.924Z,8.90
2022-11-02T06:41:35.875Z,9.27
2022-11-02T06:44:03.879Z,9.55
2022-11-02T06:46:32.377Z,9.70
2022-11-02T06:49:00.407Z,9.81
2022-11-02T06:51:29.407Z,9.84
2022-11-02T06:53:57.517Z,9.84
2022-11-02T06:56:27.819Z,9.85
2022-11-02T06:58:56.861Z,9.97
2022-11-02T07:01:25.288Z,10.13
2022-11-02T07:03:56.245Z,10.15
2022-11-02T07:06:25.070Z,10.02
2022-11-02T07:08:54.683Z,9.82
2022-11-02T07:11:24.369Z,9.77
2022-11-02T07:13:56.188Z,9.89
2022-11-02T07:16:26.732Z,10.05
2022-11-02T07:18:55.990Z,10.22
2022-11-02T07:21:24.405Z,10.43
2022-11-02T07:23:53.982Z,10.67
2022-11-02T07:26:23.020Z,10.80
2022-11-02T07:28:55.270Z,10.95
2022-11-02T07:31:26.456Z,11.10
2022-11-02T07:33:57.019Z,11.31
2022-11-02T07:36:25.006Z,11.56
2022-11-02T07:38:55.718Z,11.82
2022-11-02T07:41:26.790Z,12.03
2022-11-02T07:43:57.171Z,12.15
2022-11-02T07:46:25.919Z,11.98
2022-11-02T07:48:57.614Z,11.87
2022-11-02T07:51:31.068Z,11.83
2022-11-02T07:54:05.334Z,11.86
2022-11-02T07:56:34.279Z,11.97
2022-11-02T07:59:08.664Z,12.05
2022-11-02T08:01:36.849Z,12.11
2022-11-02T08:04:08.608Z,12.12
2022-11-02T08:06:37.049Z,12.11
2022-11-02T08:09:05.776Z,12.05
2022-11-02T08:11:35.690Z,12.01
2022-11-02T08:14:08.811Z,11.97
2022-11-02T08:16:37.193Z,11.90
2022-11-02T08:19:05.333Z,11.86
2022-11-02T08:21:35.269Z,11.84
2022-11-02T08:24:12.481Z,11.84
2022-11-02T08:26:44.154Z,11.86
2022-11-02T08:29:14.985Z,11.90
2022-11-02T08:31:42.999Z,11.87
2022-11-02T08:34:19.739Z,11.86
2022-11-02T08:36:51.058Z,11.87
2022-11-02T08:39:19.360Z,11.86
2022-11-02T08:41:47.642Z,11.84
2022-11-02T08:44:17.431Z,11.80
2022-11-02T08:46:47.705Z,11.87
2022-11-02T08:49:19.908Z,12.07
2022-11-02T08:51:51.066Z,12.26
2022-11-02T08:54:19.031Z,12.46
2022-11-02T08:56:47.804Z,12.96
2022-11-02T08:59:21.367Z,13.42
2022-11-02T09:01:52.088Z,13.63
2022-11-02T09:04:21.160Z,13.78
2022-11-02T09:06:51.862Z,14.10
2022-11-02T09:09:20.235Z,14.20
2022-11-02T09:11:51.567Z,14.37
2022-11-02T09:14:22.204Z,14.61
2022-11-02T09:16:50.530Z,14.86
2022-11-02T09:19:20.665Z,15.00
2022-11-02T09:21:49.961Z,15.15
2022-11-02T09:24:22.349Z,15.26
2022-11-02T09:26:50.727Z,15.37
2022-11-02T09:31:58.874Z,15.97
2022-11-02T09:34:28.145Z,15.91
2022-11-02T09:36:56.273Z,15.90
2022-11-02T09:39:25.223Z,15.63
2022-11-02T09:42:03.214Z,15.64
2022-11-02T09:44:40.053Z,15.64
2022-11-02T09:48:10.672Z,15.57
2022-11-02T09:50:03.916Z,15.68
2022-11-02T09:52:36.359Z,15.75
2022-11-02T09:55:05.019Z,15.87
2022-11-02T09:57:35.690Z,15.77
2022-11-02T10:00:04.105Z,15.81
2022-11-02T10:02:48.286Z,15.95
2022-11-02T10:05:27.518Z,15.90
2022-11-02T10:08:14.496Z,16.04
2022-11-02T10:11:04.040Z,16.22
2022-11-02T10:13:42.716Z,16.36
2022-11-02T10:16:14.950Z,16.56
2022-11-02T10:18:45.305Z,16.46
2022-11-02T10:21:15.835Z,16.50
2022-11-02T10:23:49.495Z,16.69
2022-11-02T10:26:20.475Z,16.66
2022-11-02T10:28:50.698Z,16.55
2022-11-02T10:31:24.906Z,16.22
2022-11-02T10:33:57.146Z,16.43
2022-11-02T10:36:40.686Z,16.67
2022-11-02T10:39:20.012Z,16.85
2022-11-02T10:42:03.289Z,16.91
2022-11-02T10:44:48.338Z,16.98
2022-11-02T10:47:19.442Z,17.08
2022-11-02T10:50:15.859Z,17.14
2022-11-02T10:52:48.628Z,16.94
2022-11-02T10:55:24.017Z,16.88
2022-11-02T10:57:52.331Z,16.97
2022-11-02T11:00:26.869Z,17.05
2022-11-02T11:06:04.042Z,16.98
2022-11-02T11:08:40.975Z,16.60
2022-11-02T11:11:15.125Z,16.43
2022-11-02T11:16:41.700Z,16.28
2022-11-02T11:19:40.181Z,16.19
2022-11-02T11:25:27.602Z,15.77
2022-11-02T11:27:58.490Z,15.64
2022-11-02T11:30:54.136Z,15.60
2022-11-02T11:33:20.706Z,15.49
2022-11-02T11:35:51.142Z,15.35
2022-11-02T11:38:21.710Z,15.26
2022-11-02T11:40:54.452Z,15.23
2022-11-02T11:43:24.683Z,15.18
2022-11-02T11:46:04.833Z,15.22
2022-11-02T11:48:37.634Z,15.25
2022-11-02T11:51:29.353Z,15.29
2022-11-02T11:54:21.218Z,15.36
2022-11-02T11:56:55.941Z,15.33
2022-11-02T11:59:26.814Z,15.23
2022-11-02T12:01:58.624Z,15.20
2022-11-02T12:04:41.395Z,15.20
2022-11-02T12:07:27.699Z,15.26
2022-11-02T12:10:05.938Z,15.42
2022-11-02T12:12:46.413Z,15.50
2022-11-02T12:15:24.308Z,15.51
2022-11-02T12:18:15.394Z,15.46
2022-11-02T12:20:57.074Z,15.40
2022-11-02T12:23:38.047Z,15.35
2022-11-02T12:26:20.174Z,15.30
2022-11-02T12:29:05.049Z,15.29
2022-11-02T12:31:36.906Z,15.26
2022-11-02T12:34:39.494Z,15.32
2022-11-02T12:40:17.166Z,15.25
2022-11-02T12:42:52.346Z,15.23
2022-11-02T12:45:26.749Z,15.23
2022-11-02T12:48:01.431Z,15.16
2022-11-02T12:50:39.056Z,15.18
2022-11-02T12:53:23.208Z,15.18
2022-11-02T12:55:55.284Z,15.22
2022-11-02T12:58:27.654Z,15.26
2022-11-02T13:00:58.717Z,15.30
2022-11-02T13:03:37.363Z,15.32
2022-11-02T13:06:11.414Z,15.23
2022-11-02T13:08:44.750Z,15.22
2022-11-02T13:11:16.443Z,15.15
2022-11-02T13:13:48.560Z,15.09
2022-11-02T13:16:19.334Z,15.12
2022-11-02T13:18:52.129Z,15.10
2022-11-02T13:21:24.926Z,15.10
2022-11-02T13:23:57.264Z,15.15
2022-11-02T13:26:30.253Z,15.20
2022-11-02T13:29:02.889Z,15.18
2022-11-02T13:31:35.687Z,15.19
2022-11-02T13:34:08.011Z,15.16
2022-11-02T13:36:39.168Z,15.09
2022-11-02T13:39:14.017Z,15.06
2022-11-02T13:42:02.199Z,15.07
2022-11-02T13:44:56.887Z,15.07
2022-11-02T13:47:42.060Z,15.07
2022-11-02T13:50:12.351Z,15.13
2022-11-02T13:52:42.288Z,15.20
2022-11-02T13:55:19.397Z,15.26
2022-11-02T13:57:50.149Z,15.23
2022-11-02T14:00:31.459Z,15.29
2022-11-02T14:03:06.966Z,15.36
2022-11-02T14:05:42.415Z,15.37
2022-11-02T14:08:12.837Z,15.37
2022-11-02T14:10:44.256Z,15.30
2022-11-02T14:13:14.269Z,15.20
2022-11-02T14:15:46.424Z,15.20
2022-11-02T14:18:33.394Z,15.12
2022-11-02T14:21:45.697Z,14.98
2022-11-02T14:24:53.960Z,14.84
2022-11-02T14:27:29.405Z,14.72
2022-11-02T14:29:58.231Z,14.63
2022-11-02T14:32:40.973Z,14.53
2022-11-02T14:35:24.649Z,14.51
2022-11-02T14:38:17.671Z,14.51
2022-11-02T14:40:53.158Z,14.38
2022-11-02T14:43:57.554Z,14.24
2022-11-02T14:46:37.999Z,14.10
2022-11-02T14:49:07.609Z,13.98
2022-11-02T14:51:40.334Z,13.89
2022-11-02T14:54:20.172Z,13.73
2022-11-02T14:56:52.246Z,13.59
2022-11-02T14:59:29.488Z,13.54
2022-11-02T15:02:02.299Z,13.45
2022-11-02T15:04:34.965Z,13.41
2022-11-02T15:07:04.983Z,13.31
2022-11-02T15:10:02.384Z,13.21
2022-11-02T15:12:45.695Z,13.16
2022-11-02T15:15:32.355Z,13.04
2022-11-02T15:18:21.549Z,12.97
2022-11-02T15:21:23.252Z,12.86
2022-11-02T15:24:15.713Z,12.76
2022-11-02T15:26:52.677Z,12.70
2022-11-02T15:29:30.511Z,12.63
2022-11-02T15:32:00.303Z,12.62
2022-11-02T15:34:37.019Z,12.52
2022-11-02T15:37:05.536Z,12.46
2022-11-02T15:39:36.417Z,12.33
2022-11-02T15:42:23.162Z,12.28
2022-11-02T15:48:22.492Z,12.00
2022-11-02T15:50:58.366Z,11.90
2022-11-02T15:53:37.873Z,11.84
2022-11-02T15:56:35.093Z,11.79
2022-11-02T15:59:26.272Z,11.70
2022-11-02T16:02:04.867Z,11.60
2022-11-02T16:04:34.270Z,11.49
2022-11-02T16:07:09.356Z,11.36
2022-11-02T16:09:41.620Z,11.25
2022-11-02T16:12:13.121Z,11.21
2022-11-02T16:14:42.554Z,11.12
2022-11-02T16:17:21.005Z,11.08
2022-11-02T16:19:51.367Z,11.01
2022-11-02T16:22:25.716Z,10.95
2022-11-02T16:24:54.902Z,10.88
2022-11-02T16:27:24.343Z,10.84
2022-11-02T16:29:56.328Z,10.76
2022-11-02T16:32:27.244Z,10.73
2022-11-02T16:35:01.675Z,10.67
2022-11-02T16:37:32.546Z,10.59
2022-11-02T16:40:00.788Z,10.55
2022-11-02T16:42:29.073Z,10.49
2022-11-02T16:45:06.542Z,10.40
2022-11-02T16:47:39.878Z,10.36
2022-11-02T16:50:23.755Z,10.29
2022-11-02T16:52:57.926Z,10.22
2022-11-02T16:55:43.816Z,10.12
2022-11-02T16:58:20.244Z,10.06
2022-11-02T17:01:05.388Z,10.05
2022-11-02T17:03:37.085Z,9.97
2022-11-02T17:06:09.081Z,9.84
2022-11-02T17:08:42.948Z,9.77
2022-11-02T17:11:17.023Z,9.74
2022-11-02T17:13:49.342Z,9.75
2022-11-02T17:16:21.349Z,9.75
2022-11-02T17:18:49.584Z,9.73
2022-11-02T17:21:32.569Z,9.65
2022-11-02T17:24:02.055Z,9.58
2022-11-02T17:26:38.483Z,9.48
2022-11-02T17:29:33.224Z,9.44
2022-11-02T17:32:07.445Z,9.47
2022-11-02T17:34:36.207Z,9.46
2022-11-02T17:37:08.333Z,9.40
2022-11-02T17:39:40.553Z,9.36
2022-11-02T17:42:28.551Z,9.27
2022-11-02T17:44:58.522Z,9.24
2022-11-02T17:47:33.023Z,9.26
2022-11-02T17:50:02.015Z,9.23
2022-11-02T17:52:30.372Z,9.19
2022-11-02T17:55:00.132Z,9.16
2022-11-02T17:57:32.629Z,9.15
2022-11-02T18:00:03.253Z,9.10
2022-11-02T18:02:33.650Z,9.08
2022-11-02T18:05:05.276Z,9.02
2022-11-02T18:07:35.612Z,8.98
2022-11-02T18:10:19.744Z,8.89
2022-11-02T18:12:48.715Z,8.89
2022-11-02T18:15:19.288Z,8.93
2022-11-02T18:17:49.125Z,8.93
2022-11-02T18:20:18.765Z,8.96
2022-11-02T18:22:48.126Z,8.98
2022-11-02T18:25:18.421Z,9.00
2022-11-02T18:27:49.649Z,8.99
2022-11-02T18:30:19.083Z,9.00
2022-11-02T18:32:53.272Z,9.03
2022-11-02T18:35:27.329Z,9.00
2022-11-02T18:37:56.453Z,8.99
2022-11-02T18:40:32.804Z,8.92
2022-11-02T18:43:04.184Z,8.85
2022-11-02T18:45:35.508Z,8.78
2022-11-02T18:48:08.577Z,8.79
2022-11-02T18:50:39.332Z,8.71
2022-11-02T18:53:19.898Z,8.65
2022-11-02T18:55:48.521Z,8.68
2022-11-02T18:58:17.027Z,8.65
2022-11-02T19:00:45.323Z,8.68
2022-11-02T19:03:17.310Z,8.78
2022-11-02T19:06:03.245Z,8.95
2022-11-02T19:08:49.583Z,8.99
2022-11-02T19:11:20.707Z,9.02
2022-11-02T19:13:49.588Z,9.00
2022-11-02T19:16:20.445Z,8.98
2022-11-02T19:18:54.892Z,8.86
2022-11-02T19:21:26.541Z,8.82
2022-11-02T19:23:58.706Z,8.86
2022-11-02T19:26:33.749Z,8.82
2022-11-02T19:29:05.961Z,8.82
2022-11-02T19:31:38.456Z,8.82
2022-11-02T19:34:10.637Z,8.75
2022-11-02T19:36:41.687Z,8.69
2022-11-02T19:39:12.281Z,8.64
2022-11-02T19:41:52.024Z,8.58
2022-11-02T19:44:20.307Z,8.58
2022-11-02T19:46:49.558Z,8.55
2022-11-02T19:49:19.769Z,8.48
2022-11-02T19:51:49.248Z,8.40
2022-11-02T19:54:17.705Z,8.31
2022-11-02T19:56:48.418Z,8.24
2022-11-02T19:59:16.650Z,8.14
2022-11-02T20:01:53.904Z,8.10
2022-11-02T20:04:27.042Z,8.10
2022-11-02T20:06:55.377Z,8.04
2022-11-02T20:09:24.113Z,8.02
2022-11-02T20:11:53.648Z,8.06
2022-11-02T20:14:22.480Z,8.02
2022-11-02T20:17:04.169Z,7.99
2022-11-02T20:19:45.407Z,7.97
2022-11-02T20:22:14.162Z,7.99
2022-11-02T20:24:52.343Z,7.97
2022-11-02T20:27:26.389Z,7.93
2022-11-02T20:29:55.487Z,7.92
2022-11-02T20:32:23.716Z,7.96
2022-11-02T20:34:55.386Z,7.92
2022-11-02T20:37:24.183Z,7.89
2022-11-02T20:39:52.541Z,7.85
2022-11-02T20:42:29.370Z,7.81
2022-11-02T20:45:01.670Z,7.73
2022-11-02T20:47:29.705Z,7.69
2022-11-02T20:49:59.204Z,7.65
2022-11-02T20:52:27.718Z,7.58
2022-11-02T20:54:57.979Z,7.55
2022-11-02T20:57:28.704Z,7.56
2022-11-02T20:59:57.572Z,7.59
2022-11-02T21:02:27.696Z,7.62
2022-11-02T21:04:56.014Z,7.61
2022-11-02T21:07:26.062Z,7.66
2022-11-02T21:09:55.406Z,7.71
2022-11-02T21:12:41.285Z,7.69
2022-11-02T21:15:12.321Z,7.71
2022-11-02T21:17:45.770Z,7.78
2022-11-02T21:23:07.435Z,7.79
2022-11-02T21:25:37.848Z,7.76
2022-11-02T21:28:08.742Z,7.72
2022-11-02T21:30:37.558Z,7.68
2022-11-02T21:33:06.348Z,7.66
2022-11-02T21:35:35.222Z,7.66
2022-11-02T21:38:07.819Z,7.58
2022-11-02T21:40:38.527Z,7.54
2022-11-02T21:43:09.561Z,7.47
2022-11-02T21:45:39.634Z,7.41
2022-11-02T21:48:07.895Z,7.31
2022-11-02T21:50:37.445Z,7.25
2022-11-02T21:53:06.887Z,7.20
2022-11-02T21:55:38.242Z,7.13
2022-11-02T21:58:08.432Z,7.10
2022-11-02T22:00:53.671Z,7.01
2022-11-02T22:03:24.293Z,6.93
2022-11-02T22:06:00.045Z,6.87
2022-11-02T22:08:42.963Z,6.80
2022-11-02T22:11:17.531Z,6.75
2022-11-02T22:13:49.385Z,6.73
2022-11-02T22:16:24.577Z,6.72
2022-11-02T22:18:59.558Z,6.72
2022-11-02T22:21:31.044Z,6.69
2022-11-02T22:24:00.676Z,6.69
2022-11-02T22:26:31.461Z,6.73
2022-11-02T22:29:01.404Z,6.75
2022-11-02T22:31:31.918Z,6.73
2022-11-02T22:34:02.997Z,6.72
2022-11-02T22:36:33.154Z,6.69
2022-11-02T22:39:03.873Z,6.66
2022-11-02T22:41:38.642Z,6.69
2022-11-02T22:44:10.945Z,6.69
2022-11-02T22:46:45.161Z,6.69
2022-11-02T22:49:17.129Z,6.65
2022-11-02T22:51:46.405Z,6.63
2022-11-02T22:54:18.822Z,6.63
2022-11-02T22:56:48.972Z,6.59
2022-11-02T22:59:17.844Z,6.59
2022-11-02T23:01:46.469Z,6.57
2022-11-02T23:04:14.625Z,6.53
2022-11-02T23:06:45.177Z,6.55
2022-11-02T23:09:14.783Z,6.53
2022-11-02T23:11:43.853Z,6.55
2022-11-02T23:14:15.011Z,6.53
2022-11-02T23:16:46.858Z,6.53
2022-11-02T23:19:25.497Z,6.46
2022-11-02T23:22:14.670Z,6.38
2022-11-02T23:25:03.659Z,6.25
2022-11-02T23:27:35.165Z,6.20
2022-11-02T23:30:23.382Z,6.11
2022-11-02T23:32:54.835Z,6.00
2022-11-02T23:35:41.181Z,5.95
2022-11-02T23:38:12.662Z,5.93
2022-11-02T23:40:43.725Z,5.91
2022-11-02T23:43:13.668Z,5.86
2022-11-02T23:45:44.559Z,5.78
2022-11-02T23:51:07.606Z,5.59
2022-11-02T23:53:54.589Z,5.52
2022-11-02T23:56:40.012Z,5.40
2022-11-02T23:59:08.040Z,5.35
